sensor_id;sensor_type;location;lat;lon;timestamp;temperature;humidity
22418;DHT22;11376;50.932;4.442;2022-10-31T00:00:41;16.20;99.90
22418;DHT22;11376;50.932;4.442;2022-10-31T00:03:07;16.20;99.90
22418;DHT22;11376;50.932;4.442;2022-10-31T00:05:32;16.20;99.90
22418;DHT22;11376;50.932;4.442;2022-10-31T00:07:58;16.20;99.90
22418;DHT22;11376;50.932;4.442;2022-10-31T00:10:23;16.20;99.90
22418;DHT22;11376;50.932;4.442;2022-10-31T00:12:49;16.20;99.90
22418;DHT22;11376;50.932;4.442;2022-10-31T00:15:15;16.20;99.90
22418;DHT22;11376;50.932;4.442;2022-10-31T00:17:40;16.10;99.90
22418;DHT22;11376;50.932;4.442;2022-10-31T00:20:06;16.10;99.90
22418;DHT22;11376;50.932;4.442;2022-10-31T00:22:32;16.10;99.90
22418;DHT22;11376;50.932;4.442;2022-10-31T00:24:57;16.10;99.90
22418;DHT22;11376;50.932;4.442;2022-10-31T00:27:23;16.00;99.90
22418;DHT22;11376;50.932;4.442;2022-10-31T00:29:48;16.00;99.90
22418;DHT22;11376;50.932;4.442;2022-10-31T00:32:14;15.90;99.90
22418;DHT22;11376;50.932;4.442;2022-10-31T00:34:39;15.90;99.90
22418;DHT22;11376;50.932;4.442;2022-10-31T00:37:05;15.80;99.90
22418;DHT22;11376;50.932;4.442;2022-10-31T00:39:31;15.80;99.90
22418;DHT22;11376;50.932;4.442;2022-10-31T00:41:56;15.70;99.90
22418;DHT22;11376;50.932;4.442;2022-10-31T00:44:22;15.60;99.90
22418;DHT22;11376;50.932;4.442;2022-10-31T00:46:47;15.50;99.90
22418;DHT22;11376;50.932;4.442;2022-10-31T00:49:13;15.50;99.90
22418;DHT22;11376;50.932;4.442;2022-10-31T00:51:38;15.40;99.90
22418;DHT22;11376;50.932;4.442;2022-10-31T00:54:04;15.30;99.90
22418;DHT22;11376;50.932;4.442;2022-10-31T00:56:31;15.20;99.90
22418;DHT22;11376;50.932;4.442;2022-10-31T00:58:56;15.10;99.90
22418;DHT22;11376;50.932;4.442;2022-10-31T01:01:22;15.10;99.90
22418;DHT22;11376;50.932;4.442;2022-10-31T01:03:47;15.00;99.90
22418;DHT22;11376;50.932;4.442;2022-10-31T01:06:13;15.00;99.90
22418;DHT22;11376;50.932;4.442;2022-10-31T01:08:39;14.90;99.90
22418;DHT22;11376;50.932;4.442;2022-10-31T01:11:10;14.80;99.90
22418;DHT22;11376;50.932;4.442;2022-10-31T01:13:36;14.80;99.90
22418;DHT22;11376;50.932;4.442;2022-10-31T01:16:03;14.80;99.90
22418;DHT22;11376;50.932;4.442;2022-10-31T01:18:29;14.70;99.90
22418;DHT22;11376;50.932;4.442;2022-10-31T01:21:07;14.70;99.90
22418;DHT22;11376;50.932;4.442;2022-10-31T01:23:33;14.60;99.90
22418;DHT22;11376;50.932;4.442;2022-10-31T01:28:33;14.60;99.90
22418;DHT22;11376;50.932;4.442;2022-10-31T01:31:06;14.60;99.90
22418;DHT22;11376;50.932;4.442;2022-10-31T01:33:33;14.60;99.90
22418;DHT22;11376;50.932;4.442;2022-10-31T01:35:58;14.60;99.90
22418;DHT22;11376;50.932;4.442;2022-10-31T01:38:24;14.60;99.90
22418;DHT22;11376;50.932;4.442;2022-10-31T01:40:50;14.50;99.90
22418;DHT22;11376;50.932;4.442;2022-10-31T01:43:16;14.50;99.90
22418;DHT22;11376;50.932;4.442;2022-10-31T01:45:44;14.50;99.90
22418;DHT22;11376;50.932;4.442;2022-10-31T01:48:14;14.40;99.90
22418;DHT22;11376;50.932;4.442;2022-10-31T01:50:41;14.40;99.90
22418;DHT22;11376;50.932;4.442;2022-10-31T01:53:10;14.40;99.90
22418;DHT22;11376;50.932;4.442;2022-10-31T01:55:40;14.30;99.90
22418;DHT22;11376;50.932;4.442;2022-10-31T01:58:20;14.30;99.90
22418;DHT22;11376;50.932;4.442;2022-10-31T02:00:49;14.20;99.90
22418;DHT22;11376;50.932;4.442;2022-10-31T02:03:17;14.20;99.90
22418;DHT22;11376;50.932;4.442;2022-10-31T02:05:44;14.20;99.90
22418;DHT22;11376;50.932;4.442;2022-10-31T02:08:28;14.10;99.90
22418;DHT22;11376;50.932;4.442;2022-10-31T02:10:56;14.00;99.90
22418;DHT22;11376;50.932;4.442;2022-10-31T02:13:22;14.00;99.90
22418;DHT22;11376;50.932;4.442;2022-10-31T02:15:54;14.00;99.90
22418;DHT22;11376;50.932;4.442;2022-10-31T02:18:20;13.90;99.90
22418;DHT22;11376;50.932;4.442;2022-10-31T02:21:00;13.90;99.90
22418;DHT22;11376;50.932;4.442;2022-10-31T02:26:15;13.80;99.90
22418;DHT22;11376;50.932;4.442;2022-10-31T02:31:56;13.80;99.90
22418;DHT22;11376;50.932;4.442;2022-10-31T02:34:37;13.80;99.90
22418;DHT22;11376;50.932;4.442;2022-10-31T02:37:29;13.80;99.90
22418;DHT22;11376;50.932;4.442;2022-10-31T02:43:19;13.70;99.90
22418;DHT22;11376;50.932;4.442;2022-10-31T02:45:57;13.70;99.90
22418;DHT22;11376;50.932;4.442;2022-10-31T02:48:27;13.60;99.90
22418;DHT22;11376;50.932;4.442;2022-10-31T02:50:57;13.60;99.90
22418;DHT22;11376;50.932;4.442;2022-10-31T02:53:24;13.50;99.90
22418;DHT22;11376;50.932;4.442;2022-10-31T02:55:56;13.50;99.90
22418;DHT22;11376;50.932;4.442;2022-10-31T02:58:25;13.50;99.90
22418;DHT22;11376;50.932;4.442;2022-10-31T03:03:53;13.40;99.90
22418;DHT22;11376;50.932;4.442;2022-10-31T03:06:37;13.40;99.90
22418;DHT22;11376;50.932;4.442;2022-10-31T03:12:07;13.40;99.90
22418;DHT22;11376;50.932;4.442;2022-10-31T03:14:41;13.50;99.90
22418;DHT22;11376;50.932;4.442;2022-10-31T03:17:14;13.50;99.90
22418;DHT22;11376;50.932;4.442;2022-10-31T03:19:47;13.40;99.90
22418;DHT22;11376;50.932;4.442;2022-10-31T03:22:16;13.40;99.90
22418;DHT22;11376;50.932;4.442;2022-10-31T03:24:43;13.40;99.90
22418;DHT22;11376;50.932;4.442;2022-10-31T03:27:11;13.40;99.90
22418;DHT22;11376;50.932;4.442;2022-10-31T03:29:39;13.40;99.90
22418;DHT22;11376;50.932;4.442;2022-10-31T03:32:36;13.40;99.90
22418;DHT22;11376;50.932;4.442;2022-10-31T03:35:04;13.40;99.90
22418;DHT22;11376;50.932;4.442;2022-10-31T03:37:33;13.40;99.90
22418;DHT22;11376;50.932;4.442;2022-10-31T03:40:01;13.40;99.90
22418;DHT22;11376;50.932;4.442;2022-10-31T03:42:31;13.40;99.90
22418;DHT22;11376;50.932;4.442;2022-10-31T03:47:31;13.40;99.90
22418;DHT22;11376;50.932;4.442;2022-10-31T03:49:57;13.30;99.90
22418;DHT22;11376;50.932;4.442;2022-10-31T03:52:36;13.30;99.90
22418;DHT22;11376;50.932;4.442;2022-10-31T03:55:16;13.30;99.90
22418;DHT22;11376;50.932;4.442;2022-10-31T04:00:13;13.20;99.90
22418;DHT22;11376;50.932;4.442;2022-10-31T04:02:42;13.20;99.90
22418;DHT22;11376;50.932;4.442;2022-10-31T04:05:10;13.20;99.90
22418;DHT22;11376;50.932;4.442;2022-10-31T04:07:41;13.20;99.90
22418;DHT22;11376;50.932;4.442;2022-10-31T04:10:11;13.10;99.90
22418;DHT22;11376;50.932;4.442;2022-10-31T04:12:39;13.10;99.90
22418;DHT22;11376;50.932;4.442;2022-10-31T04:15:06;13.00;99.90
22418;DHT22;11376;50.932;4.442;2022-10-31T04:17:34;13.00;99.90
22418;DHT22;11376;50.932;4.442;2022-10-31T04:20:02;12.90;99.90
22418;DHT22;11376;50.932;4.442;2022-10-31T04:22:28;12.90;99.90
22418;DHT22;11376;50.932;4.442;2022-10-31T04:24:54;12.80;99.90
22418;DHT22;11376;50.932;4.442;2022-10-31T04:27:19;12.80;99.90
22418;DHT22;11376;50.932;4.442;2022-10-31T04:29:45;12.80;99.90
22418;DHT22;11376;50.932;4.442;2022-10-31T04:32:11;12.80;99.90
22418;DHT22;11376;50.932;4.442;2022-10-31T04:34:36;12.70;99.90
22418;DHT22;11376;50.932;4.442;2022-10-31T04:37:02;12.70;99.90
22418;DHT22;11376;50.932;4.442;2022-10-31T04:39:27;12.70;99.90
22418;DHT22;11376;50.932;4.442;2022-10-31T04:41:53;12.70;99.90
22418;DHT22;11376;50.932;4.442;2022-10-31T04:44:18;12.70;99.90
22418;DHT22;11376;50.932;4.442;2022-10-31T04:46:44;12.70;99.90
22418;DHT22;11376;50.932;4.442;2022-10-31T04:49:09;12.70;99.90
22418;DHT22;11376;50.932;4.442;2022-10-31T04:51:35;12.70;99.90
22418;DHT22;11376;50.932;4.442;2022-10-31T04:54:00;12.70;99.90
22418;DHT22;11376;50.932;4.442;2022-10-31T04:56:26;12.70;99.90
22418;DHT22;11376;50.932;4.442;2022-10-31T04:58:52;12.70;99.90
22418;DHT22;11376;50.932;4.442;2022-10-31T05:01:18;12.70;99.90
22418;DHT22;11376;50.932;4.442;2022-10-31T05:03:43;12.70;99.90
22418;DHT22;11376;50.932;4.442;2022-10-31T05:06:09;12.70;99.90
22418;DHT22;11376;50.932;4.442;2022-10-31T05:08:34;12.70;99.90
22418;DHT22;11376;50.932;4.442;2022-10-31T05:11:04;12.70;99.90
22418;DHT22;11376;50.932;4.442;2022-10-31T05:13:29;12.80;99.90
22418;DHT22;11376;50.932;4.442;2022-10-31T05:15:55;12.80;99.90
22418;DHT22;11376;50.932;4.442;2022-10-31T05:18:21;12.90;99.90
22418;DHT22;11376;50.932;4.442;2022-10-31T05:20:47;13.00;99.90
22418;DHT22;11376;50.932;4.442;2022-10-31T05:23:12;13.10;99.90
22418;DHT22;11376;50.932;4.442;2022-10-31T05:25:39;13.20;99.90
22418;DHT22;11376;50.932;4.442;2022-10-31T05:28:05;13.20;99.90
22418;DHT22;11376;50.932;4.442;2022-10-31T05:30:32;13.30;99.90
22418;DHT22;11376;50.932;4.442;2022-10-31T05:32:58;13.30;99.90
22418;DHT22;11376;50.932;4.442;2022-10-31T05:35:27;13.40;99.90
22418;DHT22;11376;50.932;4.442;2022-10-31T05:37:53;13.40;99.90
22418;DHT22;11376;50.932;4.442;2022-10-31T05:40:19;13.40;99.90
22418;DHT22;11376;50.932;4.442;2022-10-31T05:42:46;13.50;99.90
22418;DHT22;11376;50.932;4.442;2022-10-31T05:45:14;13.50;99.90
22418;DHT22;11376;50.932;4.442;2022-10-31T05:47:39;13.50;99.90
22418;DHT22;11376;50.932;4.442;2022-10-31T05:50:06;13.50;99.90
22418;DHT22;11376;50.932;4.442;2022-10-31T05:52:32;13.50;99.90
22418;DHT22;11376;50.932;4.442;2022-10-31T05:54:57;13.50;99.90
22418;DHT22;11376;50.932;4.442;2022-10-31T05:57:23;13.50;99.90
22418;DHT22;11376;50.932;4.442;2022-10-31T05:59:49;13.60;99.90
22418;DHT22;11376;50.932;4.442;2022-10-31T06:02:20;13.60;99.90
22418;DHT22;11376;50.932;4.442;2022-10-31T06:04:46;13.60;99.90
22418;DHT22;11376;50.932;4.442;2022-10-31T06:07:12;13.70;99.90
22418;DHT22;11376;50.932;4.442;2022-10-31T06:09:38;13.70;99.90
22418;DHT22;11376;50.932;4.442;2022-10-31T06:12:03;13.80;99.90
22418;DHT22;11376;50.932;4.442;2022-10-31T06:14:29;13.80;99.90
22418;DHT22;11376;50.932;4.442;2022-10-31T06:16:55;13.90;99.90
22418;DHT22;11376;50.932;4.442;2022-10-31T06:19:21;14.00;99.90
22418;DHT22;11376;50.932;4.442;2022-10-31T06:21:47;14.00;99.90
22418;DHT22;11376;50.932;4.442;2022-10-31T06:24:12;14.10;99.90
22418;DHT22;11376;50.932;4.442;2022-10-31T06:26:38;14.20;99.90
22418;DHT22;11376;50.932;4.442;2022-10-31T06:29:04;14.20;99.90
22418;DHT22;11376;50.932;4.442;2022-10-31T06:31:29;14.30;99.90
22418;DHT22;11376;50.932;4.442;2022-10-31T06:33:55;14.30;99.90
22418;DHT22;11376;50.932;4.442;2022-10-31T06:36:21;14.30;99.90
22418;DHT22;11376;50.932;4.442;2022-10-31T06:38:46;14.40;99.90
22418;DHT22;11376;50.932;4.442;2022-10-31T06:41:12;14.40;99.90
22418;DHT22;11376;50.932;4.442;2022-10-31T06:43:37;14.40;99.90
22418;DHT22;11376;50.932;4.442;2022-10-31T06:46:04;14.40;99.90
22418;DHT22;11376;50.932;4.442;2022-10-31T06:48:30;14.50;99.90
22418;DHT22;11376;50.932;4.442;2022-10-31T06:51:02;14.50;99.90
22418;DHT22;11376;50.932;4.442;2022-10-31T06:53:28;14.60;99.90
22418;DHT22;11376;50.932;4.442;2022-10-31T06:55:56;14.60;99.90
22418;DHT22;11376;50.932;4.442;2022-10-31T06:58:22;14.70;99.90
22418;DHT22;11376;50.932;4.442;2022-10-31T07:00:51;14.70;99.90
22418;DHT22;11376;50.932;4.442;2022-10-31T07:03:17;14.80;99.90
22418;DHT22;11376;50.932;4.442;2022-10-31T07:05:43;14.80;99.90
22418;DHT22;11376;50.932;4.442;2022-10-31T07:08:13;14.90;99.90
22418;DHT22;11376;50.932;4.442;2022-10-31T07:10:40;14.90;99.90
22418;DHT22;11376;50.932;4.442;2022-10-31T07:13:10;14.90;99.90
22418;DHT22;11376;50.932;4.442;2022-10-31T07:15:40;15.00;99.90
22418;DHT22;11376;50.932;4.442;2022-10-31T07:18:08;15.00;99.90
22418;DHT22;11376;50.932;4.442;2022-10-31T07:20:34;15.00;99.90
22418;DHT22;11376;50.932;4.442;2022-10-31T07:23:00;15.10;99.90
22418;DHT22;11376;50.932;4.442;2022-10-31T07:25:26;15.10;99.90
22418;DHT22;11376;50.932;4.442;2022-10-31T07:27:52;15.20;99.90
22418;DHT22;11376;50.932;4.442;2022-10-31T07:30:18;15.20;99.90
22418;DHT22;11376;50.932;4.442;2022-10-31T07:32:50;15.30;99.90
22418;DHT22;11376;50.932;4.442;2022-10-31T07:35:21;15.40;99.90
22418;DHT22;11376;50.932;4.442;2022-10-31T07:37:47;15.40;99.90
22418;DHT22;11376;50.932;4.442;2022-10-31T07:40:13;15.50;99.90
22418;DHT22;11376;50.932;4.442;2022-10-31T07:42:40;15.60;99.90
22418;DHT22;11376;50.932;4.442;2022-10-31T07:45:11;15.70;99.90
22418;DHT22;11376;50.932;4.442;2022-10-31T07:47:44;15.70;99.90
22418;DHT22;11376;50.932;4.442;2022-10-31T07:50:12;15.80;99.90
22418;DHT22;11376;50.932;4.442;2022-10-31T07:52:38;15.90;99.90
22418;DHT22;11376;50.932;4.442;2022-10-31T07:55:05;15.80;99.90
22418;DHT22;11376;50.932;4.442;2022-10-31T07:57:31;15.90;99.90
22418;DHT22;11376;50.932;4.442;2022-10-31T07:59:56;16.00;99.90
22418;DHT22;11376;50.932;4.442;2022-10-31T08:02:23;16.00;99.90
22418;DHT22;11376;50.932;4.442;2022-10-31T08:04:49;16.10;99.90
22418;DHT22;11376;50.932;4.442;2022-10-31T08:07:14;16.20;99.90
22418;DHT22;11376;50.932;4.442;2022-10-31T08:09:40;16.20;99.90
22418;DHT22;11376;50.932;4.442;2022-10-31T08:12:06;16.30;99.90
22418;DHT22;11376;50.932;4.442;2022-10-31T08:14:31;16.30;99.90
22418;DHT22;11376;50.932;4.442;2022-10-31T08:16:57;16.40;99.90
22418;DHT22;11376;50.932;4.442;2022-10-31T08:19:22;16.40;99.90
22418;DHT22;11376;50.932;4.442;2022-10-31T08:21:51;16.40;99.90
22418;DHT22;11376;50.932;4.442;2022-10-31T08:24:18;16.50;99.90
22418;DHT22;11376;50.932;4.442;2022-10-31T08:26:43;16.50;99.90
22418;DHT22;11376;50.932;4.442;2022-10-31T08:29:09;16.60;99.90
22418;DHT22;11376;50.932;4.442;2022-10-31T08:31:35;16.70;99.90
22418;DHT22;11376;50.932;4.442;2022-10-31T08:34:00;16.80;99.90
22418;DHT22;11376;50.932;4.442;2022-10-31T08:36:27;16.90;99.90
22418;DHT22;11376;50.932;4.442;2022-10-31T08:38:52;16.90;99.90
22418;DHT22;11376;50.932;4.442;2022-10-31T08:41:18;16.80;99.90
22418;DHT22;11376;50.932;4.442;2022-10-31T08:43:44;16.80;99.90
22418;DHT22;11376;50.932;4.442;2022-10-31T08:46:10;16.80;99.90
22418;DHT22;11376;50.932;4.442;2022-10-31T08:48:35;16.80;99.90
22418;DHT22;11376;50.932;4.442;2022-10-31T08:51:01;16.80;99.90
22418;DHT22;11376;50.932;4.442;2022-10-31T08:53:27;16.80;99.90
22418;DHT22;11376;50.932;4.442;2022-10-31T08:55:55;16.80;99.90
22418;DHT22;11376;50.932;4.442;2022-10-31T08:58:21;16.90;99.90
22418;DHT22;11376;50.932;4.442;2022-10-31T09:00:52;17.00;99.90
22418;DHT22;11376;50.932;4.442;2022-10-31T09:03:29;17.10;99.90
22418;DHT22;11376;50.932;4.442;2022-10-31T09:06:00;17.20;99.90
22418;DHT22;11376;50.932;4.442;2022-10-31T09:08:26;17.30;99.90
22418;DHT22;11376;50.932;4.442;2022-10-31T09:10:52;17.30;99.90
22418;DHT22;11376;50.932;4.442;2022-10-31T09:13:21;17.40;99.90
22418;DHT22;11376;50.932;4.442;2022-10-31T09:15:49;17.40;99.90
22418;DHT22;11376;50.932;4.442;2022-10-31T09:18:17;17.50;99.90
22418;DHT22;11376;50.932;4.442;2022-10-31T09:20:44;17.50;99.90
22418;DHT22;11376;50.932;4.442;2022-10-31T09:23:13;17.60;99.90
22418;DHT22;11376;50.932;4.442;2022-10-31T09:25:40;17.70;99.90
22418;DHT22;11376;50.932;4.442;2022-10-31T09:28:08;17.70;99.90
22418;DHT22;11376;50.932;4.442;2022-10-31T09:30:35;17.80;99.90
22418;DHT22;11376;50.932;4.442;2022-10-31T09:33:07;17.90;99.90
22418;DHT22;11376;50.932;4.442;2022-10-31T09:35:34;17.90;99.90
22418;DHT22;11376;50.932;4.442;2022-10-31T09:38:02;17.90;99.90
22418;DHT22;11376;50.932;4.442;2022-10-31T09:40:34;17.90;99.90
22418;DHT22;11376;50.932;4.442;2022-10-31T09:43:24;17.90;99.90
22418;DHT22;11376;50.932;4.442;2022-10-31T09:45:54;17.90;99.90
22418;DHT22;11376;50.932;4.442;2022-10-31T09:51:05;17.90;99.90
22418;DHT22;11376;50.932;4.442;2022-10-31T09:53:39;17.90;99.90
22418;DHT22;11376;50.932;4.442;2022-10-31T09:56:10;17.90;99.90
22418;DHT22;11376;50.932;4.442;2022-10-31T09:58:43;17.90;99.90
22418;DHT22;11376;50.932;4.442;2022-10-31T10:06:51;18.30;99.90
22418;DHT22;11376;50.932;4.442;2022-10-31T10:09:19;18.50;99.90
22418;DHT22;11376;50.932;4.442;2022-10-31T10:17:33;19.00;99.90
22418;DHT22;11376;50.932;4.442;2022-10-31T10:20:31;19.10;99.90
22418;DHT22;11376;50.932;4.442;2022-10-31T10:23:28;19.20;99.90
22418;DHT22;11376;50.932;4.442;2022-10-31T10:26:12;19.40;99.90
22418;DHT22;11376;50.932;4.442;2022-10-31T10:28:41;19.50;99.90
22418;DHT22;11376;50.932;4.442;2022-10-31T10:37:00;20.10;99.90
22418;DHT22;11376;50.932;4.442;2022-10-31T10:39:41;20.20;99.90
22418;DHT22;11376;50.932;4.442;2022-10-31T10:42:12;20.40;99.90
22418;DHT22;11376;50.932;4.442;2022-10-31T10:44:57;20.40;99.90
22418;DHT22;11376;50.932;4.442;2022-10-31T10:47:59;20.40;99.90
22418;DHT22;11376;50.932;4.442;2022-10-31T10:50:35;20.30;99.90
22418;DHT22;11376;50.932;4.442;2022-10-31T10:56:19;20.30;99.90
22418;DHT22;11376;50.932;4.442;2022-10-31T10:58:47;20.20;99.90
22418;DHT22;11376;50.932;4.442;2022-10-31T11:01:14;20.50;99.90
22418;DHT22;11376;50.932;4.442;2022-10-31T11:03:41;20.80;99.90
22418;DHT22;11376;50.932;4.442;2022-10-31T11:06:20;21.10;99.90
22418;DHT22;11376;50.932;4.442;2022-10-31T11:08:50;21.50;99.90
22418;DHT22;11376;50.932;4.442;2022-10-31T11:11:29;22.10;99.90
22418;DHT22;11376;50.932;4.442;2022-10-31T11:14:05;22.50;99.90
22418;DHT22;11376;50.932;4.442;2022-10-31T11:16:37;22.80;99.90
22418;DHT22;11376;50.932;4.442;2022-10-31T11:19:19;23.10;99.90
22418;DHT22;11376;50.932;4.442;2022-10-31T11:21:46;23.50;99.90
22418;DHT22;11376;50.932;4.442;2022-10-31T11:24:17;23.90;99.90
22418;DHT22;11376;50.932;4.442;2022-10-31T11:26:45;24.20;99.90
22418;DHT22;11376;50.932;4.442;2022-10-31T11:29:29;24.30;99.90
22418;DHT22;11376;50.932;4.442;2022-10-31T11:31:57;24.40;99.90
22418;DHT22;11376;50.932;4.442;2022-10-31T11:34:30;24.40;99.90
22418;DHT22;11376;50.932;4.442;2022-10-31T11:37:18;24.30;99.90
22418;DHT22;11376;50.932;4.442;2022-10-31T11:39:47;24.50;99.90
22418;DHT22;11376;50.932;4.442;2022-10-31T11:42:23;24.80;99.90
22418;DHT22;11376;50.932;4.442;2022-10-31T11:44:50;25.00;99.90
22418;DHT22;11376;50.932;4.442;2022-10-31T11:47:17;25.10;99.90
22418;DHT22;11376;50.932;4.442;2022-10-31T11:49:47;25.00;99.90
22418;DHT22;11376;50.932;4.442;2022-10-31T11:52:22;24.80;99.90
22418;DHT22;11376;50.932;4.442;2022-10-31T11:54:54;24.50;99.90
22418;DHT22;11376;50.932;4.442;2022-10-31T11:57:44;24.40;99.90
22418;DHT22;11376;50.932;4.442;2022-10-31T12:00:27;24.30;99.90
22418;DHT22;11376;50.932;4.442;2022-10-31T12:05:54;25.10;99.90
22418;DHT22;11376;50.932;4.442;2022-10-31T12:08:21;25.70;99.90
22418;DHT22;11376;50.932;4.442;2022-10-31T12:11:08;26.50;99.90
22418;DHT22;11376;50.932;4.442;2022-10-31T12:16:34;27.70;99.90
22418;DHT22;11376;50.932;4.442;2022-10-31T12:21:59;28.80;99.90
22418;DHT22;11376;50.932;4.442;2022-10-31T12:32:49;36.90;95.50
22418;DHT22;11376;50.932;4.442;2022-10-31T12:48:46;42.80;51.90
22418;DHT22;11376;50.932;4.442;2022-10-31T12:53:54;43.90;47.80
22418;DHT22;11376;50.932;4.442;2022-10-31T12:56:54;44.30;46.00
22418;DHT22;11376;50.932;4.442;2022-10-31T12:59:30;44.60;45.40
22418;DHT22;11376;50.932;4.442;2022-10-31T13:02:12;44.90;43.30
22418;DHT22;11376;50.932;4.442;2022-10-31T13:04:49;45.00;42.70
22418;DHT22;11376;50.932;4.442;2022-10-31T13:07:28;45.10;41.60
22418;DHT22;11376;50.932;4.442;2022-10-31T13:10:03;45.20;41.00
22418;DHT22;11376;50.932;4.442;2022-10-31T13:12:32;45.10;40.40
22418;DHT22;11376;50.932;4.442;2022-10-31T13:17:46;45.10;39.80
22418;DHT22;11376;50.932;4.442;2022-10-31T13:25:55;44.40;39.00
22418;DHT22;11376;50.932;4.442;2022-10-31T13:30:53;44.20;38.90
22418;DHT22;11376;50.932;4.442;2022-10-31T13:33:20;44.10;38.90
22418;DHT22;11376;50.932;4.442;2022-10-31T13:38:43;43.70;39.30
22418;DHT22;11376;50.932;4.442;2022-10-31T13:44:18;42.70;39.50
22418;DHT22;11376;50.932;4.442;2022-10-31T13:46:45;41.90;40.10
22418;DHT22;11376;50.932;4.442;2022-10-31T13:54:38;38.60;43.80
22418;DHT22;11376;50.932;4.442;2022-10-31T13:59:54;38.50;44.50
22418;DHT22;11376;50.932;4.442;2022-10-31T14:02:35;38.90;44.30
22418;DHT22;11376;50.932;4.442;2022-10-31T14:05:05;39.00;44.10
22418;DHT22;11376;50.932;4.442;2022-10-31T14:07:32;39.30;43.90
22418;DHT22;11376;50.932;4.442;2022-10-31T14:10:02;39.40;43.70
22418;DHT22;11376;50.932;4.442;2022-10-31T14:14:58;39.40;44.00
22418;DHT22;11376;50.932;4.442;2022-10-31T14:17:27;39.20;44.40
22418;DHT22;11376;50.932;4.442;2022-10-31T14:22:39;38.80;44.70
22418;DHT22;11376;50.932;4.442;2022-10-31T14:27:52;38.60;45.30
22418;DHT22;11376;50.932;4.442;2022-10-31T14:30:28;38.60;45.30
22418;DHT22;11376;50.932;4.442;2022-10-31T14:33:00;38.30;45.00
22418;DHT22;11376;50.932;4.442;2022-10-31T14:35:50;38.20;45.00
22418;DHT22;11376;50.932;4.442;2022-10-31T14:41:39;37.40;45.10
22418;DHT22;11376;50.932;4.442;2022-10-31T14:52:36;35.40;47.90
22418;DHT22;11376;50.932;4.442;2022-10-31T14:55:06;34.80;48.80
22418;DHT22;11376;50.932;4.442;2022-10-31T14:57:36;33.80;49.80
22418;DHT22;11376;50.932;4.442;2022-10-31T15:00:07;32.80;51.40
22418;DHT22;11376;50.932;4.442;2022-10-31T15:05:48;30.70;55.70
22418;DHT22;11376;50.932;4.442;2022-10-31T15:08:29;29.80;57.60
22418;DHT22;11376;50.932;4.442;2022-10-31T15:10:56;29.00;59.70
22418;DHT22;11376;50.932;4.442;2022-10-31T15:13:22;28.40;61.80
22418;DHT22;11376;50.932;4.442;2022-10-31T15:15:49;27.80;64.30
22418;DHT22;11376;50.932;4.442;2022-10-31T15:18:19;27.20;66.90
22418;DHT22;11376;50.932;4.442;2022-10-31T15:20:46;26.70;69.80
22418;DHT22;11376;50.932;4.442;2022-10-31T15:23:20;26.20;73.10
22418;DHT22;11376;50.932;4.442;2022-10-31T15:25:46;25.60;76.40
22418;DHT22;11376;50.932;4.442;2022-10-31T15:28:21;25.10;81.40
22418;DHT22;11376;50.932;4.442;2022-10-31T15:30:55;24.60;86.30
22418;DHT22;11376;50.932;4.442;2022-10-31T15:33:27;24.10;90.80
22418;DHT22;11376;50.932;4.442;2022-10-31T15:35:58;23.80;93.00
22418;DHT22;11376;50.932;4.442;2022-10-31T15:38:25;23.40;96.00
22418;DHT22;11376;50.932;4.442;2022-10-31T15:41:06;23.20;98.50
22418;DHT22;11376;50.932;4.442;2022-10-31T15:43:44;22.80;99.90
22418;DHT22;11376;50.932;4.442;2022-10-31T15:46:11;22.60;99.90
22418;DHT22;11376;50.932;4.442;2022-10-31T15:48:37;22.30;99.90
22418;DHT22;11376;50.932;4.442;2022-10-31T15:51:04;22.10;99.90
22418;DHT22;11376;50.932;4.442;2022-10-31T15:53:33;21.90;99.90
22418;DHT22;11376;50.932;4.442;2022-10-31T15:56:03;21.70;99.90
22418;DHT22;11376;50.932;4.442;2022-10-31T15:58:33;21.40;99.90
22418;DHT22;11376;50.932;4.442;2022-10-31T16:01:04;21.20;99.90
22418;DHT22;11376;50.932;4.442;2022-10-31T16:03:32;21.00;99.90
22418;DHT22;11376;50.932;4.442;2022-10-31T16:06:00;20.80;99.90
22418;DHT22;11376;50.932;4.442;2022-10-31T16:10:57;20.50;99.90
22418;DHT22;11376;50.932;4.442;2022-10-31T16:13:32;20.30;99.90
22418;DHT22;11376;50.932;4.442;2022-10-31T16:16:01;20.10;99.90
22418;DHT22;11376;50.932;4.442;2022-10-31T16:18:30;20.00;99.90
22418;DHT22;11376;50.932;4.442;2022-10-31T16:21:00;19.80;99.90
22418;DHT22;11376;50.932;4.442;2022-10-31T16:23:26;19.70;99.90
22418;DHT22;11376;50.932;4.442;2022-10-31T16:25:52;19.60;99.90
22418;DHT22;11376;50.932;4.442;2022-10-31T16:28:27;19.40;99.90
22418;DHT22;11376;50.932;4.442;2022-10-31T16:30:56;19.30;99.90
22418;DHT22;11376;50.932;4.442;2022-10-31T16:33:32;19.10;99.90
22418;DHT22;11376;50.932;4.442;2022-10-31T16:38:53;18.80;99.90
22418;DHT22;11376;50.932;4.442;2022-10-31T16:41:19;18.70;99.90
22418;DHT22;11376;50.932;4.442;2022-10-31T16:43:45;18.60;99.90
22418;DHT22;11376;50.932;4.442;2022-10-31T16:46:14;18.50;99.90
22418;DHT22;11376;50.932;4.442;2022-10-31T16:48:40;18.40;99.90
22418;DHT22;11376;50.932;4.442;2022-10-31T16:51:07;18.30;99.90
22418;DHT22;11376;50.932;4.442;2022-10-31T16:53:33;18.20;99.90
22418;DHT22;11376;50.932;4.442;2022-10-31T16:55:59;18.10;99.90
22418;DHT22;11376;50.932;4.442;2022-10-31T16:58:32;18.00;99.90
22418;DHT22;11376;50.932;4.442;2022-10-31T17:00:59;18.00;99.90
22418;DHT22;11376;50.932;4.442;2022-10-31T17:03:25;17.90;99.90
22418;DHT22;11376;50.932;4.442;2022-10-31T17:05:50;17.80;99.90
22418;DHT22;11376;50.932;4.442;2022-10-31T17:08:16;17.70;99.90
22418;DHT22;11376;50.932;4.442;2022-10-31T17:10:42;17.70;99.90
22418;DHT22;11376;50.932;4.442;2022-10-31T17:13:19;17.60;99.90
22418;DHT22;11376;50.932;4.442;2022-10-31T17:15:50;17.50;99.90
22418;DHT22;11376;50.932;4.442;2022-10-31T17:18:16;17.50;99.90
22418;DHT22;11376;50.932;4.442;2022-10-31T17:20:43;17.40;99.90
22418;DHT22;11376;50.932;4.442;2022-10-31T17:23:14;17.40;99.90
22418;DHT22;11376;50.932;4.442;2022-10-31T17:25:40;17.30;99.90
22418;DHT22;11376;50.932;4.442;2022-10-31T17:28:07;17.30;99.90
22418;DHT22;11376;50.932;4.442;2022-10-31T17:30:36;17.20;99.90
22418;DHT22;11376;50.932;4.442;2022-10-31T17:33:02;17.20;99.90
22418;DHT22;11376;50.932;4.442;2022-10-31T17:35:28;17.20;99.90
22418;DHT22;11376;50.932;4.442;2022-10-31T17:37:53;17.10;99.90
22418;DHT22;11376;50.932;4.442;2022-10-31T17:40:20;17.20;99.90
22418;DHT22;11376;50.932;4.442;2022-10-31T17:42:54;17.10;99.90
22418;DHT22;11376;50.932;4.442;2022-10-31T17:45:21;17.10;99.90
22418;DHT22;11376;50.932;4.442;2022-10-31T17:47:48;17.10;99.90
22418;DHT22;11376;50.932;4.442;2022-10-31T17:50:18;17.10;99.90
22418;DHT22;11376;50.932;4.442;2022-10-31T17:52:44;17.20;99.90
22418;DHT22;11376;50.932;4.442;2022-10-31T17:55:10;17.20;99.90